sensor_id;sensor_type;location;lat;lon;timestamp;temperature;humidity
59234;DHT22;60776;51.702;7.462;2023-06-22T00:02:14;22.90;86.20
59234;DHT22;60776;51.702;7.462;2023-06-22T00:04:40;22.80;87.50
59234;DHT22;60776;51.702;7.462;2023-06-22T00:07:05;22.80;88.80
59234;DHT22;60776;51.702;7.462;2023-06-22T00:09:38;22.70;90.00
59234;DHT22;60776;51.702;7.462;2023-06-22T00:12:05;22.70;90.90
59234;DHT22;60776;51.702;7.462;2023-06-22T00:14:33;22.70;91.40
59234;DHT22;60776;51.702;7.462;2023-06-22T00:16:59;22.70;92.30
59234;DHT22;60776;51.702;7.462;2023-06-22T00:19:27;22.60;92.80
59234;DHT22;60776;51.702;7.462;2023-06-22T00:21:55;22.60;93.50
59234;DHT22;60776;51.702;7.462;2023-06-22T00:24:21;22.50;94.70
59234;DHT22;60776;51.702;7.462;2023-06-22T00:26:50;22.40;95.00
59234;DHT22;60776;51.702;7.462;2023-06-22T00:29:16;22.50;95.70
59234;DHT22;60776;51.702;7.462;2023-06-22T00:31:42;22.50;95.90
59234;DHT22;60776;51.702;7.462;2023-06-22T00:34:08;22.40;96.60
59234;DHT22;60776;51.702;7.462;2023-06-22T00:36:36;22.30;97.20
59234;DHT22;60776;51.702;7.462;2023-06-22T00:39:02;22.40;97.60
59234;DHT22;60776;51.702;7.462;2023-06-22T00:41:31;22.30;98.10
59234;DHT22;60776;51.702;7.462;2023-06-22T00:43:57;22.30;99.00
59234;DHT22;60776;51.702;7.462;2023-06-22T00:46:25;22.20;99.30
59234;DHT22;60776;51.702;7.462;2023-06-22T00:48:51;22.20;99.90
59234;DHT22;60776;51.702;7.462;2023-06-22T00:51:18;22.20;99.90
59234;DHT22;60776;51.702;7.462;2023-06-22T00:53:46;22.10;99.90
59234;DHT22;60776;51.702;7.462;2023-06-22T00:56:12;22.10;99.90
59234;DHT22;60776;51.702;7.462;2023-06-22T00:58:43;22.10;99.90
59234;DHT22;60776;51.702;7.462;2023-06-22T01:01:11;22.10;99.90
59234;DHT22;60776;51.702;7.462;2023-06-22T01:03:36;22.00;99.90
59234;DHT22;60776;51.702;7.462;2023-06-22T01:06:15;21.90;99.90
59234;DHT22;60776;51.702;7.462;2023-06-22T01:08:53;21.90;99.90
59234;DHT22;60776;51.702;7.462;2023-06-22T01:11:28;21.90;99.90
59234;DHT22;60776;51.702;7.462;2023-06-22T01:16:58;21.90;99.90
59234;DHT22;60776;51.702;7.462;2023-06-22T01:19:46;21.80;99.90
59234;DHT22;60776;51.702;7.462;2023-06-22T01:22:16;21.80;99.90
59234;DHT22;60776;51.702;7.462;2023-06-22T01:25:20;21.90;99.90
59234;DHT22;60776;51.702;7.462;2023-06-22T01:28:03;21.90;99.90
59234;DHT22;60776;51.702;7.462;2023-06-22T01:30:31;21.90;99.90
59234;DHT22;60776;51.702;7.462;2023-06-22T01:33:00;21.90;99.90
59234;DHT22;60776;51.702;7.462;2023-06-22T01:35:27;21.80;99.90
59234;DHT22;60776;51.702;7.462;2023-06-22T01:37:54;21.80;99.90
59234;DHT22;60776;51.702;7.462;2023-06-22T01:40:21;21.80;99.90
59234;DHT22;60776;51.702;7.462;2023-06-22T01:42:48;21.70;99.90
59234;DHT22;60776;51.702;7.462;2023-06-22T01:45:15;21.70;99.90
59234;DHT22;60776;51.702;7.462;2023-06-22T01:47:42;21.80;99.90
59234;DHT22;60776;51.702;7.462;2023-06-22T01:50:08;21.80;99.90
59234;DHT22;60776;51.702;7.462;2023-06-22T01:52:34;21.80;99.90
59234;DHT22;60776;51.702;7.462;2023-06-22T01:55:01;21.80;99.90
59234;DHT22;60776;51.702;7.462;2023-06-22T01:57:27;21.70;99.90
59234;DHT22;60776;51.702;7.462;2023-06-22T02:00:00;21.70;99.90
59234;DHT22;60776;51.702;7.462;2023-06-22T02:05:33;21.70;99.90
59234;DHT22;60776;51.702;7.462;2023-06-22T02:08:27;21.60;99.90
59234;DHT22;60776;51.702;7.462;2023-06-22T02:10:55;21.60;99.90
59234;DHT22;60776;51.702;7.462;2023-06-22T02:13:23;21.50;99.90
59234;DHT22;60776;51.702;7.462;2023-06-22T02:15:59;21.50;99.90
59234;DHT22;60776;51.702;7.462;2023-06-22T02:18:25;21.50;99.90
59234;DHT22;60776;51.702;7.462;2023-06-22T02:21:01;21.40;99.90
59234;DHT22;60776;51.702;7.462;2023-06-22T02:23:26;21.50;99.90
59234;DHT22;60776;51.702;7.462;2023-06-22T02:25:52;21.50;99.90
59234;DHT22;60776;51.702;7.462;2023-06-22T02:28:18;21.60;99.90
59234;DHT22;60776;51.702;7.462;2023-06-22T02:30:43;21.50;99.90
59234;DHT22;60776;51.702;7.462;2023-06-22T02:33:09;21.40;99.90
59234;DHT22;60776;51.702;7.462;2023-06-22T02:35:37;21.40;99.90
59234;DHT22;60776;51.702;7.462;2023-06-22T02:38:03;21.40;99.90
59234;DHT22;60776;51.702;7.462;2023-06-22T02:40:30;21.40;99.90
59234;DHT22;60776;51.702;7.462;2023-06-22T02:42:56;21.30;99.90
59234;DHT22;60776;51.702;7.462;2023-06-22T02:45:27;21.30;99.90
59234;DHT22;60776;51.702;7.462;2023-06-22T02:47:53;21.30;99.90
59234;DHT22;60776;51.702;7.462;2023-06-22T02:50:21;21.30;99.90
59234;DHT22;60776;51.702;7.462;2023-06-22T02:52:49;21.20;99.90
59234;DHT22;60776;51.702;7.462;2023-06-22T02:55:15;21.10;99.90
59234;DHT22;60776;51.702;7.462;2023-06-22T02:57:41;21.10;99.90
59234;DHT22;60776;51.702;7.462;2023-06-22T03:00:09;21.10;99.90
59234;DHT22;60776;51.702;7.462;2023-06-22T03:02:45;21.00;99.90
59234;DHT22;60776;51.702;7.462;2023-06-22T03:05:11;21.00;99.90
59234;DHT22;60776;51.702;7.462;2023-06-22T03:07:42;20.90;99.90
59234;DHT22;60776;51.702;7.462;2023-06-22T03:10:09;20.90;99.90
59234;DHT22;60776;51.702;7.462;2023-06-22T03:12:36;20.80;99.90
59234;DHT22;60776;51.702;7.462;2023-06-22T03:15:01;20.80;99.90
59234;DHT22;60776;51.702;7.462;2023-06-22T03:17:27;20.80;99.90
59234;DHT22;60776;51.702;7.462;2023-06-22T03:19:53;20.90;99.90
59234;DHT22;60776;51.702;7.462;2023-06-22T03:22:18;20.90;99.90
59234;DHT22;60776;51.702;7.462;2023-06-22T03:24:44;20.90;99.90
59234;DHT22;60776;51.702;7.462;2023-06-22T03:27:10;20.90;99.90
59234;DHT22;60776;51.702;7.462;2023-06-22T03:29:38;20.90;99.90
59234;DHT22;60776;51.702;7.462;2023-06-22T03:32:04;20.90;99.90
59234;DHT22;60776;51.702;7.462;2023-06-22T03:34:31;21.00;99.90
59234;DHT22;60776;51.702;7.462;2023-06-22T03:37:01;21.00;99.90
59234;DHT22;60776;51.702;7.462;2023-06-22T03:39:28;21.00;99.90
59234;DHT22;60776;51.702;7.462;2023-06-22T03:41:54;21.00;99.90
59234;DHT22;60776;51.702;7.462;2023-06-22T03:44:20;21.00;99.90
59234;DHT22;60776;51.702;7.462;2023-06-22T03:46:45;21.00;99.90
59234;DHT22;60776;51.702;7.462;2023-06-22T03:49:11;21.10;99.90
59234;DHT22;60776;51.702;7.462;2023-06-22T03:51:37;21.10;99.90
59234;DHT22;60776;51.702;7.462;2023-06-22T03:54:05;21.10;99.90
59234;DHT22;60776;51.702;7.462;2023-06-22T03:56:30;21.10;99.90
59234;DHT22;60776;51.702;7.462;2023-06-22T03:58:56;21.20;99.90
59234;DHT22;60776;51.702;7.462;2023-06-22T04:01:22;21.40;99.90
59234;DHT22;60776;51.702;7.462;2023-06-22T04:03:48;21.60;99.90
59234;DHT22;60776;51.702;7.462;2023-06-22T04:06:15;21.80;99.90
59234;DHT22;60776;51.702;7.462;2023-06-22T04:08:45;22.00;99.90
59234;DHT22;60776;51.702;7.462;2023-06-22T04:11:13;22.10;99.90
59234;DHT22;60776;51.702;7.462;2023-06-22T04:13:39;22.30;99.90
59234;DHT22;60776;51.702;7.462;2023-06-22T04:16:04;22.60;99.90
59234;DHT22;60776;51.702;7.462;2023-06-22T04:18:40;23.00;99.90
59234;DHT22;60776;51.702;7.462;2023-06-22T04:21:10;23.20;99.90
59234;DHT22;60776;51.702;7.462;2023-06-22T04:23:36;23.40;99.90
59234;DHT22;60776;51.702;7.462;2023-06-22T04:26:01;23.70;99.90
59234;DHT22;60776;51.702;7.462;2023-06-22T04:28:27;23.80;99.90
59234;DHT22;60776;51.702;7.462;2023-06-22T04:30:55;23.80;99.90
59234;DHT22;60776;51.702;7.462;2023-06-22T04:33:23;23.70;99.90
59234;DHT22;60776;51.702;7.462;2023-06-22T04:35:49;23.50;99.90
59234;DHT22;60776;51.702;7.462;2023-06-22T04:38:16;23.20;99.90
59234;DHT22;60776;51.702;7.462;2023-06-22T04:40:41;23.30;99.90
59234;DHT22;60776;51.702;7.462;2023-06-22T04:43:16;23.30;99.90
59234;DHT22;60776;51.702;7.462;2023-06-22T04:45:41;23.30;99.90
59234;DHT22;60776;51.702;7.462;2023-06-22T04:48:07;23.30;99.90
59234;DHT22;60776;51.702;7.462;2023-06-22T04:50:38;23.40;99.90
59234;DHT22;60776;51.702;7.462;2023-06-22T04:53:04;23.20;99.90
59234;DHT22;60776;51.702;7.462;2023-06-22T04:55:32;23.30;99.90
59234;DHT22;60776;51.702;7.462;2023-06-22T04:57:58;23.60;99.90
59234;DHT22;60776;51.702;7.462;2023-06-22T05:00:30;23.80;99.90
59234;DHT22;60776;51.702;7.462;2023-06-22T05:02:58;23.90;99.90
59234;DHT22;60776;51.702;7.462;2023-06-22T05:05:24;24.00;99.90
59234;DHT22;60776;51.702;7.462;2023-06-22T05:07:51;24.20;99.90
59234;DHT22;60776;51.702;7.462;2023-06-22T05:10:19;24.30;99.90
59234;DHT22;60776;51.702;7.462;2023-06-22T05:12:46;24.30;99.90
59234;DHT22;60776;51.702;7.462;2023-06-22T05:15:14;24.50;99.90
59234;DHT22;60776;51.702;7.462;2023-06-22T05:17:40;24.50;99.90
59234;DHT22;60776;51.702;7.462;2023-06-22T05:20:09;24.50;99.90
59234;DHT22;60776;51.702;7.462;2023-06-22T05:22:35;24.30;99.90
59234;DHT22;60776;51.702;7.462;2023-06-22T05:25:04;24.10;99.90
59234;DHT22;60776;51.702;7.462;2023-06-22T05:27:31;23.90;99.90
59234;DHT22;60776;51.702;7.462;2023-06-22T05:29:57;23.80;99.90
59234;DHT22;60776;51.702;7.462;2023-06-22T05:32:23;23.60;99.90
59234;DHT22;60776;51.702;7.462;2023-06-22T05:34:48;23.40;99.90
59234;DHT22;60776;51.702;7.462;2023-06-22T05:37:14;23.30;99.90
59234;DHT22;60776;51.702;7.462;2023-06-22T05:39:40;23.30;99.90
59234;DHT22;60776;51.702;7.462;2023-06-22T05:42:06;23.20;99.90
59234;DHT22;60776;51.702;7.462;2023-06-22T05:44:35;23.10;99.90
59234;DHT22;60776;51.702;7.462;2023-06-22T05:47:01;23.10;99.90
59234;DHT22;60776;51.702;7.462;2023-06-22T05:49:26;23.00;99.90
59234;DHT22;60776;51.702;7.462;2023-06-22T05:51:58;23.00;99.90
59234;DHT22;60776;51.702;7.462;2023-06-22T05:54:31;23.10;99.90
59234;DHT22;60776;51.702;7.462;2023-06-22T05:56:57;23.10;99.90
59234;DHT22;60776;51.702;7.462;2023-06-22T05:59:25;23.10;99.90
59234;DHT22;60776;51.702;7.462;2023-06-22T06:01:51;23.10;99.90
59234;DHT22;60776;51.702;7.462;2023-06-22T06:04:17;23.10;99.90
59234;DHT22;60776;51.702;7.462;2023-06-22T06:06:43;23.10;99.90
59234;DHT22;60776;51.702;7.462;2023-06-22T06:09:09;23.20;99.90
59234;DHT22;60776;51.702;7.462;2023-06-22T06:11:36;23.30;99.90
59234;DHT22;60776;51.702;7.462;2023-06-22T06:14:02;23.40;99.90
59234;DHT22;60776;51.702;7.462;2023-06-22T06:16:27;23.50;99.90
59234;DHT22;60776;51.702;7.462;2023-06-22T06:18:53;23.60;99.90
59234;DHT22;60776;51.702;7.462;2023-06-22T06:21:21;23.80;99.90
59234;DHT22;60776;51.702;7.462;2023-06-22T06:23:47;23.90;99.90
59234;DHT22;60776;51.702;7.462;2023-06-22T06:26:22;23.90;99.90
59234;DHT22;60776;51.702;7.462;2023-06-22T06:28:53;23.90;99.90
59234;DHT22;60776;51.702;7.462;2023-06-22T06:31:20;24.00;99.90
59234;DHT22;60776;51.702;7.462;2023-06-22T06:33:54;24.00;99.90
59234;DHT22;60776;51.702;7.462;2023-06-22T06:36:20;24.10;99.90
59234;DHT22;60776;51.702;7.462;2023-06-22T06:38:45;24.20;99.90
59234;DHT22;60776;51.702;7.462;2023-06-22T06:41:22;24.40;99.90
59234;DHT22;60776;51.702;7.462;2023-06-22T06:43:48;24.50;99.90
59234;DHT22;60776;51.702;7.462;2023-06-22T06:46:14;24.80;99.90
59234;DHT22;60776;51.702;7.462;2023-06-22T06:48:39;25.00;99.90
59234;DHT22;60776;51.702;7.462;2023-06-22T06:51:05;25.10;99.90
59234;DHT22;60776;51.702;7.462;2023-06-22T06:53:33;25.20;99.90
59234;DHT22;60776;51.702;7.462;2023-06-22T06:55:59;25.20;99.90
59234;DHT22;60776;51.702;7.462;2023-06-22T06:58:25;25.10;99.90
59234;DHT22;60776;51.702;7.462;2023-06-22T07:00:50;25.00;99.90
59234;DHT22;60776;51.702;7.462;2023-06-22T07:03:18;24.90;99.90
59234;DHT22;60776;51.702;7.462;2023-06-22T07:05:44;24.70;99.90
59234;DHT22;60776;51.702;7.462;2023-06-22T07:08:10;24.60;99.90
59234;DHT22;60776;51.702;7.462;2023-06-22T07:10:38;24.50;99.90
59234;DHT22;60776;51.702;7.462;2023-06-22T07:13:06;24.40;99.90
59234;DHT22;60776;51.702;7.462;2023-06-22T07:15:31;24.40;99.90
59234;DHT22;60776;51.702;7.462;2023-06-22T07:17:57;24.40;99.90
59234;DHT22;60776;51.702;7.462;2023-06-22T07:20:23;24.40;99.90
59234;DHT22;60776;51.702;7.462;2023-06-22T07:22:48;24.40;99.90
59234;DHT22;60776;51.702;7.462;2023-06-22T07:25:14;24.50;99.90
59234;DHT22;60776;51.702;7.462;2023-06-22T07:27:44;24.50;99.90
59234;DHT22;60776;51.702;7.462;2023-06-22T07:30:11;24.50;99.90
59234;DHT22;60776;51.702;7.462;2023-06-22T07:32:37;24.60;99.90
59234;DHT22;60776;51.702;7.462;2023-06-22T07:35:03;24.70;99.90
59234;DHT22;60776;51.702;7.462;2023-06-22T07:37:30;24.80;99.90
59234;DHT22;60776;51.702;7.462;2023-06-22T07:39:56;24.90;99.90
59234;DHT22;60776;51.702;7.462;2023-06-22T07:42:29;24.90;99.90
59234;DHT22;60776;51.702;7.462;2023-06-22T07:45:00;25.00;99.90
59234;DHT22;60776;51.702;7.462;2023-06-22T07:47:26;25.00;99.90
59234;DHT22;60776;51.702;7.462;2023-06-22T07:49:58;25.10;99.90
59234;DHT22;60776;51.702;7.462;2023-06-22T07:52:26;25.10;99.90
59234;DHT22;60776;51.702;7.462;2023-06-22T07:54:52;25.20;99.90
59234;DHT22;60776;51.702;7.462;2023-06-22T07:57:17;25.10;99.90
59234;DHT22;60776;51.702;7.462;2023-06-22T07:59:44;25.10;99.90
59234;DHT22;60776;51.702;7.462;2023-06-22T08:02:10;25.10;99.90
59234;DHT22;60776;51.702;7.462;2023-06-22T08:04:39;25.10;99.90
59234;DHT22;60776;51.702;7.462;2023-06-22T08:07:05;25.10;99.90
59234;DHT22;60776;51.702;7.462;2023-06-22T08:09:32;25.10;99.90
59234;DHT22;60776;51.702;7.462;2023-06-22T08:11:58;25.10;99.90
59234;DHT22;60776;51.702;7.462;2023-06-22T08:14:30;25.00;99.90
59234;DHT22;60776;51.702;7.462;2023-06-22T08:16:55;25.10;99.90
59234;DHT22;60776;51.702;7.462;2023-06-22T08:19:21;25.30;99.90
59234;DHT22;60776;51.702;7.462;2023-06-22T08:21:47;25.40;99.90
59234;DHT22;60776;51.702;7.462;2023-06-22T08:24:12;25.60;99.90
59234;DHT22;60776;51.702;7.462;2023-06-22T08:26:40;25.80;99.90
59234;DHT22;60776;51.702;7.462;2023-06-22T08:29:08;26.20;99.90
59234;DHT22;60776;51.702;7.462;2023-06-22T08:31:34;26.50;99.90
59234;DHT22;60776;51.702;7.462;2023-06-22T08:34:00;26.60;99.90
59234;DHT22;60776;51.702;7.462;2023-06-22T08:36:26;26.70;99.50
59234;DHT22;60776;51.702;7.462;2023-06-22T08:38:54;26.70;99.40
59234;DHT22;60776;51.702;7.462;2023-06-22T08:41:23;26.80;98.90
59234;DHT22;60776;51.702;7.462;2023-06-22T08:43:48;27.20;98.50
59234;DHT22;60776;51.702;7.462;2023-06-22T08:46:14;27.50;96.90
59234;DHT22;60776;51.702;7.462;2023-06-22T08:48:45;27.60;96.30
59234;DHT22;60776;51.702;7.462;2023-06-22T08:51:19;27.70;95.70
59234;DHT22;60776;51.702;7.462;2023-06-22T08:53:48;27.90;95.60
59234;DHT22;60776;51.702;7.462;2023-06-22T08:56:22;28.00;95.00
59234;DHT22;60776;51.702;7.462;2023-06-22T08:58:50;28.10;94.60
59234;DHT22;60776;51.702;7.462;2023-06-22T09:01:25;28.40;93.60
59234;DHT22;60776;51.702;7.462;2023-06-22T09:03:50;29.40;92.40
59234;DHT22;60776;51.702;7.462;2023-06-22T09:06:21;31.30;88.90
59234;DHT22;60776;51.702;7.462;2023-06-22T09:08:47;32.70;80.50
59234;DHT22;60776;51.702;7.462;2023-06-22T09:11:13;33.10;74.30
59234;DHT22;60776;51.702;7.462;2023-06-22T09:13:41;32.50;71.70
59234;DHT22;60776;51.702;7.462;2023-06-22T09:16:07;31.50;73.00
59234;DHT22;60776;51.702;7.462;2023-06-22T09:18:36;30.60;76.10
59234;DHT22;60776;51.702;7.462;2023-06-22T09:21:02;30.20;78.80
59234;DHT22;60776;51.702;7.462;2023-06-22T09:23:27;29.80;79.20
59234;DHT22;60776;51.702;7.462;2023-06-22T09:25:53;29.50;81.30
59234;DHT22;60776;51.702;7.462;2023-06-22T09:28:19;29.50;82.30
59234;DHT22;60776;51.702;7.462;2023-06-22T09:30:44;29.70;82.30
59234;DHT22;60776;51.702;7.462;2023-06-22T09:33:10;29.60;82.00
59234;DHT22;60776;51.702;7.462;2023-06-22T09:35:36;29.30;82.40
59234;DHT22;60776;51.702;7.462;2023-06-22T09:38:02;29.30;83.30
59234;DHT22;60776;51.702;7.462;2023-06-22T09:40:27;29.20;83.30
59234;DHT22;60776;51.702;7.462;2023-06-22T09:42:53;29.10;83.60
59234;DHT22;60776;51.702;7.462;2023-06-22T09:45:20;29.20;84.50
59234;DHT22;60776;51.702;7.462;2023-06-22T09:47:45;29.40;84.60
59234;DHT22;60776;51.702;7.462;2023-06-22T09:50:12;29.60;83.20
59234;DHT22;60776;51.702;7.462;2023-06-22T09:52:37;29.80;82.90
59234;DHT22;60776;51.702;7.462;2023-06-22T09:55:03;30.10;83.60
59234;DHT22;60776;51.702;7.462;2023-06-22T09:57:29;30.20;81.70
59234;DHT22;60776;51.702;7.462;2023-06-22T09:59:55;30.30;81.10
59234;DHT22;60776;51.702;7.462;2023-06-22T10:02:24;30.80;80.50
59234;DHT22;60776;51.702;7.462;2023-06-22T10:04:50;32.00;78.30
59234;DHT22;60776;51.702;7.462;2023-06-22T10:07:15;33.10;73.60
59234;DHT22;60776;51.702;7.462;2023-06-22T10:09:41;33.80;69.40
59234;DHT22;60776;51.702;7.462;2023-06-22T10:12:07;34.70;66.50
59234;DHT22;60776;51.702;7.462;2023-06-22T10:14:33;35.40;64.00
59234;DHT22;60776;51.702;7.462;2023-06-22T10:16:59;35.10;61.30
59234;DHT22;60776;51.702;7.462;2023-06-22T10:19:24;34.60;61.90
59234;DHT22;60776;51.702;7.462;2023-06-22T10:21:50;33.90;61.90
59234;DHT22;60776;51.702;7.462;2023-06-22T10:24:16;32.90;65.30
59234;DHT22;60776;51.702;7.462;2023-06-22T10:26:41;32.50;67.30
59234;DHT22;60776;51.702;7.462;2023-06-22T10:29:07;32.40;67.20
59234;DHT22;60776;51.702;7.462;2023-06-22T10:31:32;32.20;68.40
59234;DHT22;60776;51.702;7.462;2023-06-22T10:33:58;32.00;68.80
59234;DHT22;60776;51.702;7.462;2023-06-22T10:36:27;31.40;69.80
59234;DHT22;60776;51.702;7.462;2023-06-22T10:38:52;31.00;70.90
59234;DHT22;60776;51.702;7.462;2023-06-22T10:41:18;30.80;72.20
59234;DHT22;60776;51.702;7.462;2023-06-22T10:43:44;30.50;73.20
59234;DHT22;60776;51.702;7.462;2023-06-22T10:46:12;30.50;73.80
59234;DHT22;60776;51.702;7.462;2023-06-22T10:48:38;30.50;74.50
59234;DHT22;60776;51.702;7.462;2023-06-22T10:51:03;30.60;74.50
59234;DHT22;60776;51.702;7.462;2023-06-22T10:53:29;30.80;74.50
59234;DHT22;60776;51.702;7.462;2023-06-22T10:55:55;30.90;74.90
59234;DHT22;60776;51.702;7.462;2023-06-22T10:58:20;31.10;74.10
59234;DHT22;60776;51.702;7.462;2023-06-22T11:00:51;31.00;74.00
59234;DHT22;60776;51.702;7.462;2023-06-22T11:03:19;31.20;74.30
59234;DHT22;60776;51.702;7.462;2023-06-22T11:05:45;31.80;72.70
59234;DHT22;60776;51.702;7.462;2023-06-22T11:08:13;32.10;72.00
59234;DHT22;60776;51.702;7.462;2023-06-22T11:10:38;32.50;70.90
59234;DHT22;60776;51.702;7.462;2023-06-22T11:13:04;32.90;69.60
59234;DHT22;60776;51.702;7.462;2023-06-22T11:15:31;32.90;68.80
59234;DHT22;60776;51.702;7.462;2023-06-22T11:17:56;33.10;68.70
59234;DHT22;60776;51.702;7.462;2023-06-22T11:20:22;33.30;68.10
59234;DHT22;60776;51.702;7.462;2023-06-22T11:22:48;33.40;66.50
59234;DHT22;60776;51.702;7.462;2023-06-22T11:25:13;33.20;67.00
59234;DHT22;60776;51.702;7.462;2023-06-22T11:27:42;32.90;67.60
59234;DHT22;60776;51.702;7.462;2023-06-22T11:30:08;32.70;68.20
59234;DHT22;60776;51.702;7.462;2023-06-22T11:32:34;32.40;69.20
59234;DHT22;60776;51.702;7.462;2023-06-22T11:35:00;32.20;69.40
59234;DHT22;60776;51.702;7.462;2023-06-22T11:37:25;31.80;70.20
59234;DHT22;60776;51.702;7.462;2023-06-22T11:39:51;31.30;71.70
59234;DHT22;60776;51.702;7.462;2023-06-22T11:42:20;31.00;72.40
59234;DHT22;60776;51.702;7.462;2023-06-22T11:44:45;30.70;72.90
59234;DHT22;60776;51.702;7.462;2023-06-22T11:47:11;30.40;74.20
59234;DHT22;60776;51.702;7.462;2023-06-22T11:49:37;30.20;74.80
59234;DHT22;60776;51.702;7.462;2023-06-22T11:52:02;30.00;75.80
59234;DHT22;60776;51.702;7.462;2023-06-22T11:54:28;29.90;77.40
59234;DHT22;60776;51.702;7.462;2023-06-22T11:56:54;29.70;79.30
59234;DHT22;60776;51.702;7.462;2023-06-22T11:59:19;29.40;82.20
59234;DHT22;60776;51.702;7.462;2023-06-22T12:01:47;29.30;83.30
59234;DHT22;60776;51.702;7.462;2023-06-22T12:04:14;29.00;84.00
59234;DHT22;60776;51.702;7.462;2023-06-22T12:06:40;28.80;85.50
59234;DHT22;60776;51.702;7.462;2023-06-22T12:09:07;28.60;87.80
59234;DHT22;60776;51.702;7.462;2023-06-22T12:11:33;28.40;89.10
59234;DHT22;60776;51.702;7.462;2023-06-22T12:13:59;28.20;90.90
59234;DHT22;60776;51.702;7.462;2023-06-22T12:16:30;28.00;91.70
59234;DHT22;60776;51.702;7.462;2023-06-22T12:18:58;27.90;92.60
59234;DHT22;60776;51.702;7.462;2023-06-22T12:21:24;27.60;94.60
59234;DHT22;60776;51.702;7.462;2023-06-22T12:23:49;27.30;96.10
59234;DHT22;60776;51.702;7.462;2023-06-22T12:26:16;27.20;98.60
59234;DHT22;60776;51.702;7.462;2023-06-22T12:28:41;27.00;99.90
59234;DHT22;60776;51.702;7.462;2023-06-22T12:31:07;26.90;99.90
59234;DHT22;60776;51.702;7.462;2023-06-22T12:33:33;26.70;99.90
59234;DHT22;60776;51.702;7.462;2023-06-22T12:35:58;26.50;99.90
59234;DHT22;60776;51.702;7.462;2023-06-22T12:38:24;26.20;99.90
59234;DHT22;60776;51.702;7.462;2023-06-22T12:40:52;26.00;99.90
59234;DHT22;60776;51.702;7.462;2023-06-22T12:43:21;25.80;99.90
59234;DHT22;60776;51.702;7.462;2023-06-22T12:45:46;25.60;99.90
59234;DHT22;60776;51.702;7.462;2023-06-22T12:48:12;25.40;99.90
59234;DHT22;60776;51.702;7.462;2023-06-22T12:50:38;25.30;99.90
59234;DHT22;60776;51.702;7.462;2023-06-22T12:53:05;25.20;99.90
59234;DHT22;60776;51.702;7.462;2023-06-22T12:55:31;25.10;99.90
59234;DHT22;60776;51.702;7.462;2023-06-22T12:57:57;25.00;99.90
59234;DHT22;60776;51.702;7.462;2023-06-22T13:00:23;24.90;99.90
59234;DHT22;60776;51.702;7.462;2023-06-22T13:02:49;24.80;99.90
59234;DHT22;60776;51.702;7.462;2023-06-22T13:05:14;24.80;99.90
59234;DHT22;60776;51.702;7.462;2023-06-22T13:07:40;24.70;99.90
59234;DHT22;60776;51.702;7.462;2023-06-22T13:10:08;24.60;99.90
59234;DHT22;60776;51.702;7.462;2023-06-22T13:12:34;24.60;99.90
59234;DHT22;60776;51.702;7.462;2023-06-22T13:14:59;24.60;99.90
59234;DHT22;60776;51.702;7.462;2023-06-22T13:17:25;24.70;99.90
59234;DHT22;60776;51.702;7.462;2023-06-22T13:19:51;24.70;99.90
59234;DHT22;60776;51.702;7.462;2023-06-22T13:22:32;24.70;99.90
59234;DHT22;60776;51.702;7.462;2023-06-22T13:24:59;24.70;99.90
59234;DHT22;60776;51.702;7.462;2023-06-22T13:27:27;24.60;99.90
59234;DHT22;60776;51.702;7.462;2023-06-22T13:29:53;24.50;99.90
59234;DHT22;60776;51.702;7.462;2023-06-22T13:32:20;24.30;99.90
59234;DHT22;60776;51.702;7.462;2023-06-22T13:34:46;24.30;99.90
59234;DHT22;60776;51.702;7.462;2023-06-22T13:37:12;24.40;99.90
59234;DHT22;60776;51.702;7.462;2023-06-22T13:39:37;24.70;99.90
59234;DHT22;60776;51.702;7.462;2023-06-22T13:42:05;25.10;99.90
59234;DHT22;60776;51.702;7.462;2023-06-22T13:44:31;25.80;99.90
59234;DHT22;60776;51.702;7.462;2023-06-22T13:46:57;26.40;99.90
59234;DHT22;60776;51.702;7.462;2023-06-22T13:49:23;26.70;99.90
59234;DHT22;60776;51.702;7.462;2023-06-22T13:51:51;26.80;99.90
59234;DHT22;60776;51.702;7.462;2023-06-22T13:54:17;26.80;99.90
59234;DHT22;60776;51.702;7.462;2023-06-22T13:56:42;26.70;99.90
59234;DHT22;60776;51.702;7.462;2023-06-22T13:59:08;26.50;99.90
59234;DHT22;60776;51.702;7.462;2023-06-22T14:01:37;26.40;99.90
59234;DHT22;60776;51.702;7.462;2023-06-22T14:04:05;26.20;99.90
59234;DHT22;60776;51.702;7.462;2023-06-22T14:06:33;26.30;99.90
59234;DHT22;60776;51.702;7.462;2023-06-22T14:08:59;26.40;99.90
59234;DHT22;60776;51.702;7.462;2023-06-22T14:11:25;26.40;99.90
59234;DHT22;60776;51.702;7.462;2023-06-22T14:13:51;26.50;99.90
59234;DHT22;60776;51.702;7.462;2023-06-22T14:16:17;26.40;99.90
59234;DHT22;60776;51.702;7.462;2023-06-22T14:18:45;26.20;99.90
59234;DHT22;60776;51.702;7.462;2023-06-22T14:21:11;26.00;99.90
59234;DHT22;60776;51.702;7.462;2023-06-22T14:23:38;26.10;99.90
59234;DHT22;60776;51.702;7.462;2023-06-22T14:26:04;26.20;99.90
59234;DHT22;60776;51.702;7.462;2023-06-22T14:28:30;26.20;99.90
59234;DHT22;60776;51.702;7.462;2023-06-22T14:30:59;26.20;99.90
59234;DHT22;60776;51.702;7.462;2023-06-22T14:33:24;26.20;99.90
59234;DHT22;60776;51.702;7.462;2023-06-22T14:35:50;26.30;99.90
59234;DHT22;60776;51.702;7.462;2023-06-22T14:38:16;26.50;99.90
59234;DHT22;60776;51.702;7.462;2023-06-22T14:40:42;26.60;99.90
59234;DHT22;60776;51.702;7.462;2023-06-22T14:43:10;26.50;99.90
59234;DHT22;60776;51.702;7.462;2023-06-22T14:45:38;26.50;99.90
59234;DHT22;60776;51.702;7.462;2023-06-22T14:48:04;26.40;99.90
59234;DHT22;60776;51.702;7.462;2023-06-22T14:50:29;26.20;99.90
59234;DHT22;60776;51.702;7.462;2023-06-22T14:53:03;26.00;99.90
59234;DHT22;60776;51.702;7.462;2023-06-22T14:55:31;25.80;99.90
59234;DHT22;60776;51.702;7.462;2023-06-22T14:57:57;25.80;99.90
59234;DHT22;60776;51.702;7.462;2023-06-22T15:00:22;25.60;99.90
59234;DHT22;60776;51.702;7.462;2023-06-22T15:02:48;25.60;99.90
59234;DHT22;60776;51.702;7.462;2023-06-22T15:05:21;25.60;99.90
59234;DHT22;60776;51.702;7.462;2023-06-22T15:07:49;25.50;99.90
59234;DHT22;60776;51.702;7.462;2023-06-22T15:10:15;25.50;99.90
59234;DHT22;60776;51.702;7.462;2023-06-22T15:12:41;25.50;99.90
59234;DHT22;60776;51.702;7.462;2023-06-22T15:15:07;25.40;99.90
59234;DHT22;60776;51.702;7.462;2023-06-22T15:17:40;25.40;99.90
59234;DHT22;60776;51.702;7.462;2023-06-22T15:20:06;25.30;99.90
59234;DHT22;60776;51.702;7.462;2023-06-22T15:22:32;25.30;99.90
59234;DHT22;60776;51.702;7.462;2023-06-22T15:24:58;25.20;99.90
59234;DHT22;60776;51.702;7.462;2023-06-22T15:27:26;25.10;99.90
59234;DHT22;60776;51.702;7.462;2023-06-22T15:29:51;25.00;99.90
59234;DHT22;60776;51.702;7.462;2023-06-22T15:32:17;25.10;99.90
59234;DHT22;60776;51.702;7.462;2023-06-22T15:34:43;25.00;99.90
59234;DHT22;60776;51.702;7.462;2023-06-22T15:37:08;25.20;99.90